Snow/Ice From: 24-10-2018 05:00 Until: 09:00 warning for: Snow/Ice Level: Yellow info button
suomi:
Liikennesää: Ajokeli muuttuu huonoksi aamulla tienpintojen jäätymisen vuoksi.

svenska:
Trafikvädret: Väglaget blir dåligt på morgonen p.g.a. tillfrysning av vägytor.

english:
Traffic weather warning: Bad road conditions are expected in the morning because of ice-covered roads. 


Thunder radar more information blitzortung!


Löydät sääaseman tiedot myös:

European Weather Network

Finland Weather Exchange

Weather Underground

AWEKAS



Weather Underground säähistoriasivu

Päivittäin yhteenveto Kesäkuu 6, 2017 Yksiköt:  Englantilaiset    Metriset   Molemmat
« Edellinen Päivä
Seuraava Päivä »
Päivittäin Viikoittain Kuukausittain Vuosittain Mukautettu
  Korkea: Matala: Keskiarvo:
Lämpötila: TemperatureF °F 46.8 °F 56.9 °F
Kastepiste: DewpointF °F 45.3 °F 47.6 °F
Kosteus: Humidity % 46 % 73 %
Tuulen nopeus: WindSpeedMPH mph 0.0 mph 1.7 mph
Tuulenpuuska: WindSpeedGustMPH mph - -
Tuuli:- - SSW
Ilmanpaine: PressureIn in 29.60 in -
Sade: 0.01 in    
Historical Graphs
 
 
Taulukkotiedot Kesäkuu 6, 2017
Aika Lämpötila Kastepiste Ilmanpaine Tuuli Tuulen nopeus Tuulenpuuska Kosteus Sademäärä (tunneittain)
TemperatureF °F DewpointF °F PressureIn in Calm     Humidity % HourlyPrecipIn in
00:00 51.4 °F 50.2 °F 29.60 in Calm     95 % 0.00 in
00:15 51.3 °F 49.8 °F 29.60 in Calm     95 % 0.00 in
00:30 50.4 °F 49.1 °F 29.61 in Calm     95 % 0.00 in
00:45 49.8 °F 48.4 °F 29.62 in Calm     95 % 0.00 in
01:00 49.5 °F 48.0 °F 29.62 in Calm     95 % 0.00 in
01:15 49.1 °F 47.7 °F 29.63 in Calm     95 % 0.00 in
01:30 48.9 °F 47.5 °F 29.64 in Calm     95 % 0.00 in
01:45 48.7 °F 47.5 °F 29.65 in Calm     95 % 0.00 in
02:00 48.7 °F 47.5 °F 29.66 in Calm     95 % 0.00 in
02:15 48.7 °F 47.5 °F 29.66 in Calm     95 % 0.00 in
02:30 48.9 °F 47.5 °F 29.66 in Calm     95 % 0.00 in
02:45 48.9 °F 47.5 °F 29.67 in Calm     95 % 0.00 in
03:00 48.9 °F 47.5 °F 29.67 in SSW 2.0 mph 6.0 mph 95 % 0.00 in
03:15 48.9 °F 47.8 °F 29.68 in SSW 1.0 mph 6.0 mph 96 % 0.00 in
03:30 48.9 °F 47.8 °F 29.68 in SSW 2.0 mph 6.0 mph 96 % 0.00 in
03:45 48.9 °F 47.8 °F 29.69 in SSW 2.0 mph 7.0 mph 96 % 0.00 in
04:00 48.9 °F 47.8 °F 29.69 in SSW 1.0 mph 6.0 mph 96 % 0.00 in
04:15 48.7 °F 47.7 °F 29.70 in SW 2.0 mph 7.0 mph 96 % 0.00 in
04:30 48.4 °F 47.3 °F 29.71 in SSW 2.0 mph 8.0 mph 96 % 0.00 in
04:45 48.2 °F 46.8 °F 29.71 in SSW 1.0 mph 4.0 mph 95 % 0.00 in
05:00 47.8 °F 46.4 °F 29.72 in Calm   5.0 mph 95 % 0.00 in
05:15 47.3 °F 45.9 °F 29.72 in SSW 1.0 mph 5.0 mph 95 % 0.00 in
05:30 46.9 °F 45.5 °F 29.72 in SSW 1.0 mph 8.0 mph 95 % 0.00 in
05:45 46.8 °F 45.3 °F 29.73 in Calm   5.0 mph 95 % 0.00 in
06:00 46.8 °F 45.5 °F 29.74 in SW 1.0 mph 5.0 mph 95 % 0.00 in
06:15 46.8 °F 45.5 °F 29.75 in SSW 2.0 mph 6.0 mph 95 % 0.00 in
06:30 46.9 °F 45.3 °F 29.75 in SSW 2.0 mph 5.0 mph 94 % 0.00 in
06:45 47.1 °F 45.5 °F 29.75 in SSW 2.0 mph 5.0 mph 94 % 0.00 in
07:00 47.8 °F 46.0 °F 29.76 in SSW 2.0 mph 5.0 mph 93 % 0.00 in
07:15 48.6 °F 46.2 °F 29.76 in Calm   3.0 mph 92 % 0.00 in
07:30 49.3 °F 46.8 °F 29.77 in SW 1.0 mph 5.0 mph 91 % 0.00 in
07:45 50.0 °F 46.9 °F 29.77 in Calm   4.0 mph 89 % 0.00 in
08:00 50.7 °F 47.1 °F 29.78 in SW 1.0 mph 3.0 mph 87 % 0.00 in
08:15 51.4 °F 47.1 °F 29.79 in SSW 2.0 mph 5.0 mph 85 % 0.00 in
08:30 52.5 °F 47.1 °F 29.79 in SSW 1.0 mph 5.0 mph 82 % 0.00 in
08:45 53.4 °F 47.5 °F 29.80 in SW 2.0 mph 7.0 mph 80 % 0.00 in
09:00 54.1 °F 47.8 °F 29.80 in SW 2.0 mph 6.0 mph 79 % 0.00 in
09:15 54.9 °F 47.1 °F 29.80 in SW 2.0 mph 6.0 mph 75 % 0.00 in
09:30 55.8 °F 48.0 °F 29.81 in SSW 1.0 mph 8.0 mph 75 % 0.00 in
09:45 55.8 °F 48.0 °F 29.81 in SSW 2.0 mph 6.0 mph 75 % 0.00 in
10:00 56.3 °F 47.8 °F 29.82 in SSW 3.0 mph 8.0 mph 73 % 0.00 in
10:15 57.2 °F 48.6 °F 29.82 in SSW 1.0 mph 5.0 mph 73 % 0.00 in
10:30 57.7 °F 48.0 °F 29.82 in South 3.0 mph 7.0 mph 70 % 0.00 in
10:45 59.5 °F 48.2 °F 29.83 in SSW 1.0 mph 7.0 mph 66 % 0.01 in
11:00 58.8 °F 46.8 °F 29.83 in SSW 3.0 mph 8.0 mph 64 % 0.01 in
11:15 60.1 °F 46.9 °F 29.83 in SSW 2.0 mph 7.0 mph 62 % 0.01 in
11:30 60.8 °F 48.2 °F 29.83 in South 3.0 mph 8.0 mph 63 % 0.01 in
11:45 61.3 °F 46.0 °F 29.83 in South 2.0 mph 7.0 mph 57 % 0.00 in
12:00 62.1 °F 45.7 °F 29.83 in South 2.0 mph 10.0 mph 55 % 0.00 in
12:15 63.1 °F 47.7 °F 29.83 in SSW 3.0 mph 8.0 mph 57 % 0.00 in
12:30 63.3 °F 46.9 °F 29.84 in SSW 3.0 mph 8.0 mph 55 % 0.00 in
12:45 63.7 °F 47.7 °F 29.84 in SSW 3.0 mph 9.0 mph 56 % 0.00 in
13:00 63.3 °F 46.9 °F 29.84 in SW 2.0 mph 9.0 mph 55 % 0.00 in
13:15 64.2 °F 47.3 °F 29.84 in SSW 3.0 mph 9.0 mph 54 % 0.00 in
13:30 64.2 °F 48.2 °F 29.84 in South 3.0 mph 11.0 mph 56 % 0.00 in
13:45 64.8 °F 48.6 °F 29.84 in SSW 3.0 mph 8.0 mph 56 % 0.00 in
14:00 64.8 °F 49.1 °F 29.84 in South 3.0 mph 9.0 mph 57 % 0.00 in
14:15 64.8 °F 48.6 °F 29.85 in SSW 3.0 mph 8.0 mph 56 % 0.00 in
14:30 64.8 °F 50.2 °F 29.85 in SW 2.0 mph 8.0 mph 59 % 0.00 in
14:45 65.8 °F 50.2 °F 29.85 in SW 3.0 mph 9.0 mph 57 % 0.00 in
15:00 65.3 °F 50.2 °F 29.86 in SSW 4.0 mph 9.0 mph 58 % 0.00 in
15:15 65.7 °F 48.6 °F 29.86 in SSW 6.0 mph 12.0 mph 54 % 0.00 in
15:30 65.7 °F 49.1 °F 29.86 in SSW 4.0 mph 8.0 mph 55 % 0.00 in
15:45 65.8 °F 49.1 °F 29.87 in SSW 4.0 mph 10.0 mph 55 % 0.00 in
16:00 66.7 °F 49.1 °F 29.87 in SSW 4.0 mph 10.0 mph 53 % 0.00 in
16:15 66.9 °F 49.3 °F 29.87 in SSW 4.0 mph 13.0 mph 53 % 0.00 in
16:30 66.4 °F 48.2 °F 29.87 in SSW 5.0 mph 11.0 mph 52 % 0.00 in
16:45 67.1 °F 47.8 °F 29.87 in SSW 6.0 mph 12.0 mph 50 % 0.00 in
17:00 68.2 °F 47.7 °F 29.87 in SSW 5.0 mph 12.0 mph 48 % 0.00 in
17:15 67.6 °F 46.8 °F 29.88 in SW 5.0 mph 10.0 mph 47 % 0.00 in
17:30 66.7 °F 45.3 °F 29.88 in SSW 4.0 mph 9.0 mph 46 % 0.00 in
17:45 67.6 °F 46.0 °F 29.89 in SW 4.0 mph 9.0 mph 46 % 0.00 in
18:00 66.0 °F 46.2 °F 29.90 in SSW 5.0 mph 12.0 mph 49 % 0.00 in
18:15 65.8 °F 47.7 °F 29.89 in WSW 3.0 mph 11.0 mph 52 % 0.00 in
18:30 66.6 °F 48.4 °F 29.90 in WSW 3.0 mph 10.0 mph 52 % 0.00 in
18:45 66.0 °F 48.0 °F 29.90 in WSW 3.0 mph 8.0 mph 52 % 0.00 in
19:00 66.0 °F 48.4 °F 29.90 in WSW 1.0 mph 7.0 mph 53 % 0.00 in
19:15 66.4 °F 49.1 °F 29.90 in WSW 1.0 mph 6.0 mph 54 % 0.00 in
19:30 66.2 °F 49.6 °F 29.90 in West 1.0 mph 6.0 mph 55 % 0.00 in
19:45 65.5 °F 49.8 °F 29.90 in SW 1.0 mph 5.0 mph 57 % 0.00 in
20:00 65.1 °F 49.5 °F 29.91 in SW 2.0 mph 9.0 mph 57 % 0.00 in
20:15 64.2 °F 49.6 °F 29.91 in SSW 2.0 mph 7.0 mph 59 % 0.00 in
20:30 64.0 °F 50.4 °F 29.92 in WSW 1.0 mph 6.0 mph 61 % 0.00 in
20:45 63.9 °F 50.5 °F 29.92 in SW 1.0 mph 5.0 mph 62 % 0.00 in
21:00 63.3 °F 50.5 °F 29.92 in Calm   4.0 mph 63 % 0.00 in
21:15 62.8 °F 51.3 °F 29.93 in Calm   3.0 mph 66 % 0.00 in
21:30 62.2 °F 51.4 °F 29.93 in Calm   3.0 mph 68 % 0.00 in
21:45 62.1 °F 51.3 °F 29.94 in Calm   3.0 mph 68 % 0.00 in
22:00 61.5 °F 50.9 °F 29.94 in Calm     68 % 0.00 in
22:15 61.0 °F 51.4 °F 29.94 in Calm     71 % 0.00 in
22:30 60.1 °F 50.9 °F 29.94 in Calm     72 % 0.00 in
22:45 58.6 °F 51.1 °F 29.95 in Calm     76 % 0.00 in
23:00 57.0 °F 50.5 °F 29.95 in Calm     79 % 0.00 in
23:15 55.6 °F 50.2 °F 29.95 in Calm     82 % 0.00 in
23:30 54.3 °F 49.6 °F 29.96 in Calm     84 % 0.00 in
23:45 53.2 °F 48.7 °F 29.96 in Calm     85 % 0.00 in
Esan sääasema
Terveisin Weather Underground - 2.75 mb

Alkuperäinen skripti  Jim McMurry - jmcmurry@mwt.net Sovitettu myös templatelle  Wim van der Kuil - Leuven-Template.eu

Laitteet joita käytämme:

Sääasema
Davis VP2

Sääasemaohjelma
Cumulus

Sääaseman tietokone
Asus EeePC

Palveluntarjoaja
Suncomet

Davis VP2

Cumulus

Asus EeePC

Suncomet